sensor_id;sensor_type;location;lat;lon;timestamp;P1;durP1;ratioP1;P2;durP2;ratioP2
8312;SDS011;4194;43.408;24.626;2023-04-03T00:01:12;5.57;;;3.03;;
8312;SDS011;4194;43.408;24.626;2023-04-03T00:03:39;3.13;;;2.27;;
8312;SDS011;4194;43.408;24.626;2023-04-03T00:06:06;3.23;;;1.70;;
8312;SDS011;4194;43.408;24.626;2023-04-03T00:08:35;1.83;;;1.40;;
8312;SDS011;4194;43.408;24.626;2023-04-03T00:11:01;1.50;;;1.40;;
8312;SDS011;4194;43.408;24.626;2023-04-03T00:13:27;1.57;;;1.27;;
8312;SDS011;4194;43.408;24.626;2023-04-03T00:15:53;2.33;;;1.50;;
8312;SDS011;4194;43.408;24.626;2023-04-03T00:18:19;1.20;;;1.10;;
8312;SDS011;4194;43.408;24.626;2023-04-03T00:20:45;1.90;;;1.23;;
8312;SDS011;4194;43.408;24.626;2023-04-03T00:23:11;1.93;;;1.70;;
8312;SDS011;4194;43.408;24.626;2023-04-03T00:25:36;1.90;;;1.63;;
8312;SDS011;4194;43.408;24.626;2023-04-03T00:28:03;3.73;;;1.70;;
8312;SDS011;4194;43.408;24.626;2023-04-03T00:30:29;2.50;;;1.50;;
8312;SDS011;4194;43.408;24.626;2023-04-03T00:32:55;1.20;;;1.10;;
8312;SDS011;4194;43.408;24.626;2023-04-03T00:35:21;2.83;;;1.70;;
8312;SDS011;4194;43.408;24.626;2023-04-03T00:37:50;2.33;;;1.30;;
8312;SDS011;4194;43.408;24.626;2023-04-03T00:40:17;1.40;;;1.30;;
8312;SDS011;4194;43.408;24.626;2023-04-03T00:42:45;2.83;;;1.30;;
8312;SDS011;4194;43.408;24.626;2023-04-03T00:47:43;2.27;;;1.90;;
8312;SDS011;4194;43.408;24.626;2023-04-03T00:50:09;2.20;;;1.70;;
8312;SDS011;4194;43.408;24.626;2023-04-03T00:52:35;2.57;;;1.90;;
8312;SDS011;4194;43.408;24.626;2023-04-03T00:55:04;1.70;;;1.60;;
8312;SDS011;4194;43.408;24.626;2023-04-03T00:57:32;2.20;;;1.50;;
8312;SDS011;4194;43.408;24.626;2023-04-03T01:00:04;1.77;;;1.30;;
8312;SDS011;4194;43.408;24.626;2023-04-03T01:02:34;2.50;;;1.37;;
8312;SDS011;4194;43.408;24.626;2023-04-03T01:04:59;1.77;;;1.37;;
8312;SDS011;4194;43.408;24.626;2023-04-03T01:07:29;1.40;;;1.30;;
8312;SDS011;4194;43.408;24.626;2023-04-03T01:09:57;1.70;;;1.20;;
8312;SDS011;4194;43.408;24.626;2023-04-03T01:12:31;1.13;;;1.03;;
8312;SDS011;4194;43.408;24.626;2023-04-03T01:15:13;1.27;;;1.17;;
8312;SDS011;4194;43.408;24.626;2023-04-03T01:17:56;2.10;;;1.53;;
8312;SDS011;4194;43.408;24.626;2023-04-03T01:25:38;1.70;;;1.60;;
8312;SDS011;4194;43.408;24.626;2023-04-03T01:28:19;2.47;;;1.40;;
8312;SDS011;4194;43.408;24.626;2023-04-03T01:33:25;2.07;;;1.50;;
8312;SDS011;4194;43.408;24.626;2023-04-03T01:35:51;1.43;;;1.20;;
8312;SDS011;4194;43.408;24.626;2023-04-03T01:38:17;1.30;;;1.20;;
8312;SDS011;4194;43.408;24.626;2023-04-03T01:40:43;2.10;;;1.63;;
8312;SDS011;4194;43.408;24.626;2023-04-03T01:43:08;2.17;;;1.53;;
8312;SDS011;4194;43.408;24.626;2023-04-03T01:45:34;3.33;;;1.83;;
8312;SDS011;4194;43.408;24.626;2023-04-03T01:48:00;1.77;;;1.43;;
8312;SDS011;4194;43.408;24.626;2023-04-03T01:50:26;1.70;;;1.60;;
8312;SDS011;4194;43.408;24.626;2023-04-03T01:52:51;1.67;;;1.50;;
8312;SDS011;4194;43.408;24.626;2023-04-03T01:55:17;1.90;;;1.80;;
8312;SDS011;4194;43.408;24.626;2023-04-03T01:57:43;3.03;;;1.30;;
8312;SDS011;4194;43.408;24.626;2023-04-03T02:00:09;1.70;;;1.47;;
8312;SDS011;4194;43.408;24.626;2023-04-03T02:02:35;1.63;;;1.53;;
8312;SDS011;4194;43.408;24.626;2023-04-03T02:05:00;1.70;;;1.37;;
8312;SDS011;4194;43.408;24.626;2023-04-03T02:07:26;4.13;;;1.80;;
8312;SDS011;4194;43.408;24.626;2023-04-03T02:09:52;3.33;;;1.53;;
8312;SDS011;4194;43.408;24.626;2023-04-03T02:12:18;1.70;;;1.20;;
8312;SDS011;4194;43.408;24.626;2023-04-03T02:14:43;1.67;;;1.33;;
8312;SDS011;4194;43.408;24.626;2023-04-03T02:17:09;1.43;;;1.23;;
8312;SDS011;4194;43.408;24.626;2023-04-03T02:19:35;1.13;;;1.10;;
8312;SDS011;4194;43.408;24.626;2023-04-03T02:22:01;1.50;;;1.33;;
8312;SDS011;4194;43.408;24.626;2023-04-03T02:24:28;2.77;;;1.20;;
8312;SDS011;4194;43.408;24.626;2023-04-03T02:26:53;2.27;;;1.30;;
8312;SDS011;4194;43.408;24.626;2023-04-03T02:29:19;1.37;;;1.20;;
8312;SDS011;4194;43.408;24.626;2023-04-03T02:31:45;1.13;;;1.03;;
8312;SDS011;4194;43.408;24.626;2023-04-03T02:34:11;1.83;;;1.37;;
8312;SDS011;4194;43.408;24.626;2023-04-03T02:36:36;3.00;;;1.13;;
8312;SDS011;4194;43.408;24.626;2023-04-03T02:39:02;3.40;;;1.13;;
8312;SDS011;4194;43.408;24.626;2023-04-03T02:41:29;3.63;;;1.40;;
8312;SDS011;4194;43.408;24.626;2023-04-03T02:44:00;3.30;;;1.27;;
8312;SDS011;4194;43.408;24.626;2023-04-03T02:46:26;1.40;;;1.30;;
8312;SDS011;4194;43.408;24.626;2023-04-03T02:48:52;2.50;;;1.37;;
8312;SDS011;4194;43.408;24.626;2023-04-03T02:51:18;1.63;;;1.53;;
8312;SDS011;4194;43.408;24.626;2023-04-03T02:53:43;1.17;;;1.07;;
8312;SDS011;4194;43.408;24.626;2023-04-03T02:56:09;1.27;;;1.17;;
8312;SDS011;4194;43.408;24.626;2023-04-03T02:58:35;1.73;;;1.20;;
8312;SDS011;4194;43.408;24.626;2023-04-03T03:01:01;1.50;;;1.40;;
8312;SDS011;4194;43.408;24.626;2023-04-03T03:03:26;1.80;;;1.70;;
8312;SDS011;4194;43.408;24.626;2023-04-03T03:06:02;8.93;;;1.50;;
8312;SDS011;4194;43.408;24.626;2023-04-03T03:08:29;3.03;;;1.70;;
8312;SDS011;4194;43.408;24.626;2023-04-03T03:10:55;1.67;;;1.57;;
8312;SDS011;4194;43.408;24.626;2023-04-03T03:13:21;4.80;;;1.80;;
8312;SDS011;4194;43.408;24.626;2023-04-03T03:15:46;3.53;;;1.50;;
8312;SDS011;4194;43.408;24.626;2023-04-03T03:18:12;4.73;;;1.80;;
8312;SDS011;4194;43.408;24.626;2023-04-03T03:20:38;1.70;;;1.60;;
8312;SDS011;4194;43.408;24.626;2023-04-03T03:23:03;2.00;;;1.60;;
8312;SDS011;4194;43.408;24.626;2023-04-03T03:25:29;2.00;;;1.90;;
8312;SDS011;4194;43.408;24.626;2023-04-03T03:27:54;2.33;;;1.57;;
8312;SDS011;4194;43.408;24.626;2023-04-03T03:30:20;2.83;;;1.57;;
8312;SDS011;4194;43.408;24.626;2023-04-03T03:32:46;2.90;;;1.73;;
8312;SDS011;4194;43.408;24.626;2023-04-03T03:35:11;2.33;;;2.13;;
8312;SDS011;4194;43.408;24.626;2023-04-03T03:37:37;2.17;;;1.80;;
8312;SDS011;4194;43.408;24.626;2023-04-03T03:40:03;2.93;;;1.83;;
8312;SDS011;4194;43.408;24.626;2023-04-03T03:42:29;2.43;;;2.20;;
8312;SDS011;4194;43.408;24.626;2023-04-03T03:44:54;2.87;;;2.27;;
8312;SDS011;4194;43.408;24.626;2023-04-03T03:47:20;5.63;;;2.47;;
8312;SDS011;4194;43.408;24.626;2023-04-03T03:49:46;3.83;;;2.70;;
8312;SDS011;4194;43.408;24.626;2023-04-03T03:52:12;7.57;;;2.70;;
8312;SDS011;4194;43.408;24.626;2023-04-03T03:54:38;4.93;;;2.87;;
8312;SDS011;4194;43.408;24.626;2023-04-03T03:57:04;3.90;;;2.03;;
8312;SDS011;4194;43.408;24.626;2023-04-03T03:59:30;4.07;;;1.90;;
8312;SDS011;4194;43.408;24.626;2023-04-03T04:01:55;3.87;;;2.20;;
8312;SDS011;4194;43.408;24.626;2023-04-03T04:04:21;3.10;;;1.87;;
8312;SDS011;4194;43.408;24.626;2023-04-03T04:06:47;2.50;;;1.80;;
8312;SDS011;4194;43.408;24.626;2023-04-03T04:09:12;4.03;;;2.50;;
8312;SDS011;4194;43.408;24.626;2023-04-03T04:11:38;2.63;;;2.37;;
8312;SDS011;4194;43.408;24.626;2023-04-03T04:14:05;5.43;;;3.27;;
8312;SDS011;4194;43.408;24.626;2023-04-03T04:16:31;6.37;;;2.97;;
8312;SDS011;4194;43.408;24.626;2023-04-03T04:18:57;5.17;;;2.37;;
8312;SDS011;4194;43.408;24.626;2023-04-03T04:21:23;4.33;;;2.27;;
8312;SDS011;4194;43.408;24.626;2023-04-03T04:23:48;5.30;;;2.10;;
8312;SDS011;4194;43.408;24.626;2023-04-03T04:26:14;7.73;;;2.83;;
8312;SDS011;4194;43.408;24.626;2023-04-03T04:28:40;5.20;;;2.47;;
8312;SDS011;4194;43.408;24.626;2023-04-03T04:31:06;2.87;;;2.53;;
8312;SDS011;4194;43.408;24.626;2023-04-03T04:33:31;6.18;;;2.55;;
8312;SDS011;4194;43.408;24.626;2023-04-03T04:35:57;7.90;;;2.57;;
8312;SDS011;4194;43.408;24.626;2023-04-03T04:38:22;8.40;;;3.00;;
8312;SDS011;4194;43.408;24.626;2023-04-03T04:40:48;8.00;;;2.60;;
8312;SDS011;4194;43.408;24.626;2023-04-03T04:43:14;9.17;;;2.97;;
8312;SDS011;4194;43.408;24.626;2023-04-03T04:45:40;3.43;;;2.40;;
8312;SDS011;4194;43.408;24.626;2023-04-03T04:48:06;6.47;;;3.30;;
8312;SDS011;4194;43.408;24.626;2023-04-03T04:50:32;5.40;;;2.63;;
8312;SDS011;4194;43.408;24.626;2023-04-03T04:52:58;7.50;;;3.10;;
8312;SDS011;4194;43.408;24.626;2023-04-03T04:55:24;5.50;;;3.00;;
8312;SDS011;4194;43.408;24.626;2023-04-03T04:57:49;4.87;;;2.10;;
8312;SDS011;4194;43.408;24.626;2023-04-03T05:00:15;3.53;;;2.17;;
8312;SDS011;4194;43.408;24.626;2023-04-03T05:02:41;5.07;;;2.20;;
8312;SDS011;4194;43.408;24.626;2023-04-03T05:05:07;3.77;;;2.13;;
8312;SDS011;4194;43.408;24.626;2023-04-03T05:07:33;3.77;;;2.43;;
8312;SDS011;4194;43.408;24.626;2023-04-03T05:10:00;6.63;;;3.10;;
8312;SDS011;4194;43.408;24.626;2023-04-03T05:12:27;6.30;;;2.43;;
8312;SDS011;4194;43.408;24.626;2023-04-03T05:14:54;3.43;;;2.67;;
8312;SDS011;4194;43.408;24.626;2023-04-03T05:17:19;3.53;;;2.50;;
8312;SDS011;4194;43.408;24.626;2023-04-03T05:19:45;6.47;;;3.20;;
8312;SDS011;4194;43.408;24.626;2023-04-03T05:22:11;7.07;;;3.60;;
8312;SDS011;4194;43.408;24.626;2023-04-03T05:24:37;6.93;;;3.73;;
8312;SDS011;4194;43.408;24.626;2023-04-03T05:27:02;8.17;;;4.07;;
8312;SDS011;4194;43.408;24.626;2023-04-03T05:29:28;5.60;;;3.30;;
8312;SDS011;4194;43.408;24.626;2023-04-03T05:31:54;9.33;;;3.83;;
8312;SDS011;4194;43.408;24.626;2023-04-03T05:34:21;10.47;;;3.20;;
8312;SDS011;4194;43.408;24.626;2023-04-03T05:36:47;14.47;;;3.53;;
8312;SDS011;4194;43.408;24.626;2023-04-03T05:39:13;4.73;;;2.73;;
8312;SDS011;4194;43.408;24.626;2023-04-03T05:41:39;6.60;;;3.07;;
8312;SDS011;4194;43.408;24.626;2023-04-03T05:44:04;5.23;;;2.87;;
8312;SDS011;4194;43.408;24.626;2023-04-03T05:46:30;6.10;;;2.73;;
8312;SDS011;4194;43.408;24.626;2023-04-03T05:48:56;12.67;;;6.53;;
8312;SDS011;4194;43.408;24.626;2023-04-03T05:51:24;16.63;;;8.23;;
8312;SDS011;4194;43.408;24.626;2023-04-03T05:53:55;8.47;;;4.97;;
8312;SDS011;4194;43.408;24.626;2023-04-03T05:56:25;9.80;;;4.37;;
8312;SDS011;4194;43.408;24.626;2023-04-03T05:58:51;9.43;;;3.40;;
8312;SDS011;4194;43.408;24.626;2023-04-03T06:01:17;3.37;;;1.90;;
8312;SDS011;4194;43.408;24.626;2023-04-03T06:03:43;2.70;;;1.23;;
8312;SDS011;4194;43.408;24.626;2023-04-03T06:06:12;10.07;;;5.07;;
8312;SDS011;4194;43.408;24.626;2023-04-03T06:08:39;8.23;;;3.87;;
8312;SDS011;4194;43.408;24.626;2023-04-03T06:11:05;10.20;;;5.10;;
8312;SDS011;4194;43.408;24.626;2023-04-03T06:13:31;4.80;;;2.57;;
8312;SDS011;4194;43.408;24.626;2023-04-03T06:15:56;8.30;;;2.87;;
8312;SDS011;4194;43.408;24.626;2023-04-03T06:18:23;3.67;;;2.67;;
8312;SDS011;4194;43.408;24.626;2023-04-03T06:20:49;4.07;;;3.13;;
8312;SDS011;4194;43.408;24.626;2023-04-03T06:23:14;7.00;;;4.20;;
8312;SDS011;4194;43.408;24.626;2023-04-03T06:25:40;7.63;;;4.70;;
8312;SDS011;4194;43.408;24.626;2023-04-03T06:28:07;5.63;;;3.90;;
8312;SDS011;4194;43.408;24.626;2023-04-03T06:30:35;3.73;;;1.70;;
8312;SDS011;4194;43.408;24.626;2023-04-03T06:33:01;3.47;;;2.30;;
8312;SDS011;4194;43.408;24.626;2023-04-03T06:35:59;1.57;;;1.30;;
8312;SDS011;4194;43.408;24.626;2023-04-03T06:38:24;3.63;;;1.70;;
8312;SDS011;4194;43.408;24.626;2023-04-03T06:40:50;2.27;;;1.50;;
8312;SDS011;4194;43.408;24.626;2023-04-03T06:43:17;3.13;;;1.43;;
8312;SDS011;4194;43.408;24.626;2023-04-03T06:45:42;2.80;;;1.40;;
8312;SDS011;4194;43.408;24.626;2023-04-03T06:48:08;5.67;;;1.57;;
8312;SDS011;4194;43.408;24.626;2023-04-03T06:50:34;1.63;;;1.30;;
8312;SDS011;4194;43.408;24.626;2023-04-03T06:53:00;3.13;;;1.33;;
8312;SDS011;4194;43.408;24.626;2023-04-03T06:55:26;4.43;;;2.77;;
8312;SDS011;4194;43.408;24.626;2023-04-03T06:57:52;6.00;;;2.20;;
8312;SDS011;4194;43.408;24.626;2023-04-03T07:00:18;3.03;;;1.53;;
8312;SDS011;4194;43.408;24.626;2023-04-03T07:02:44;4.50;;;1.30;;
8312;SDS011;4194;43.408;24.626;2023-04-03T07:05:10;2.40;;;1.90;;
8312;SDS011;4194;43.408;24.626;2023-04-03T07:07:36;1.53;;;1.33;;
8312;SDS011;4194;43.408;24.626;2023-04-03T07:10:03;2.27;;;1.20;;
8312;SDS011;4194;43.408;24.626;2023-04-03T07:12:31;1.47;;;1.30;;
8312;SDS011;4194;43.408;24.626;2023-04-03T07:14:57;7.50;;;1.57;;
8312;SDS011;4194;43.408;24.626;2023-04-03T07:17:23;1.30;;;1.20;;
8312;SDS011;4194;43.408;24.626;2023-04-03T07:19:48;1.67;;;1.57;;
8312;SDS011;4194;43.408;24.626;2023-04-03T07:22:14;2.50;;;1.90;;
8312;SDS011;4194;43.408;24.626;2023-04-03T07:24:43;3.40;;;1.97;;
8312;SDS011;4194;43.408;24.626;2023-04-03T07:27:09;1.43;;;1.33;;
8312;SDS011;4194;43.408;24.626;2023-04-03T07:29:37;3.97;;;1.30;;
8312;SDS011;4194;43.408;24.626;2023-04-03T07:32:03;1.47;;;1.37;;
8312;SDS011;4194;43.408;24.626;2023-04-03T07:34:30;4.43;;;1.37;;
8312;SDS011;4194;43.408;24.626;2023-04-03T07:36:57;2.77;;;1.87;;
8312;SDS011;4194;43.408;24.626;2023-04-03T07:39:23;1.73;;;1.40;;
8312;SDS011;4194;43.408;24.626;2023-04-03T07:41:50;1.87;;;1.10;;
8312;SDS011;4194;43.408;24.626;2023-04-03T07:44:16;1.90;;;1.50;;
8312;SDS011;4194;43.408;24.626;2023-04-03T07:46:42;2.27;;;1.57;;
8312;SDS011;4194;43.408;24.626;2023-04-03T07:49:08;3.03;;;1.27;;
8312;SDS011;4194;43.408;24.626;2023-04-03T07:51:34;1.30;;;1.20;;
8312;SDS011;4194;43.408;24.626;2023-04-03T07:54:00;1.27;;;1.17;;
8312;SDS011;4194;43.408;24.626;2023-04-03T07:56:25;2.93;;;1.53;;
8312;SDS011;4194;43.408;24.626;2023-04-03T07:58:51;2.87;;;1.17;;
8312;SDS011;4194;43.408;24.626;2023-04-03T08:01:17;1.80;;;1.05;;
8312;SDS011;4194;43.408;24.626;2023-04-03T08:03:42;1.47;;;1.30;;
8312;SDS011;4194;43.408;24.626;2023-04-03T08:06:08;2.67;;;1.30;;
8312;SDS011;4194;43.408;24.626;2023-04-03T08:08:35;1.67;;;1.00;;
8312;SDS011;4194;43.408;24.626;2023-04-03T08:11:01;4.33;;;1.47;;
8312;SDS011;4194;43.408;24.626;2023-04-03T08:13:27;1.17;;;1.07;;
8312;SDS011;4194;43.408;24.626;2023-04-03T08:15:54;2.43;;;1.33;;
8312;SDS011;4194;43.408;24.626;2023-04-03T08:18:22;4.43;;;1.70;;
8312;SDS011;4194;43.408;24.626;2023-04-03T08:20:50;3.53;;;1.30;;
8312;SDS011;4194;43.408;24.626;2023-04-03T08:23:16;1.40;;;1.30;;
8312;SDS011;4194;43.408;24.626;2023-04-03T08:25:43;1.20;;;1.10;;
8312;SDS011;4194;43.408;24.626;2023-04-03T08:28:10;1.80;;;1.20;;
8312;SDS011;4194;43.408;24.626;2023-04-03T08:30:40;1.43;;;1.00;;
8312;SDS011;4194;43.408;24.626;2023-04-03T08:33:07;1.47;;;1.17;;
8312;SDS011;4194;43.408;24.626;2023-04-03T08:35:33;4.63;;;1.63;;
8312;SDS011;4194;43.408;24.626;2023-04-03T08:38:02;1.37;;;1.27;;
8312;SDS011;4194;43.408;24.626;2023-04-03T08:40:28;2.53;;;1.43;;
8312;SDS011;4194;43.408;24.626;2023-04-03T08:43:04;1.50;;;1.40;;
8312;SDS011;4194;43.408;24.626;2023-04-03T08:45:53;1.50;;;1.40;;
8312;SDS011;4194;43.408;24.626;2023-04-03T08:48:33;1.57;;;1.30;;
8312;SDS011;4194;43.408;24.626;2023-04-03T08:51:04;1.90;;;1.80;;
8312;SDS011;4194;43.408;24.626;2023-04-03T08:53:58;2.53;;;2.00;;
8312;SDS011;4194;43.408;24.626;2023-04-03T08:56:29;1.73;;;1.60;;
8312;SDS011;4194;43.408;24.626;2023-04-03T08:58:58;2.53;;;1.60;;
8312;SDS011;4194;43.408;24.626;2023-04-03T09:01:36;3.03;;;1.80;;
8312;SDS011;4194;43.408;24.626;2023-04-03T09:04:09;2.10;;;1.80;;
8312;SDS011;4194;43.408;24.626;2023-04-03T09:06:37;2.93;;;1.90;;
8312;SDS011;4194;43.408;24.626;2023-04-03T09:11:55;2.57;;;1.90;;
8312;SDS011;4194;43.408;24.626;2023-04-03T09:14:57;1.83;;;1.70;;
8312;SDS011;4194;43.408;24.626;2023-04-03T09:23:20;2.80;;;2.00;;
8312;SDS011;4194;43.408;24.626;2023-04-03T09:25:56;3.93;;;1.93;;
8312;SDS011;4194;43.408;24.626;2023-04-03T09:28:35;1.90;;;1.70;;
8312;SDS011;4194;43.408;24.626;2023-04-03T09:31:06;2.10;;;1.70;;
8312;SDS011;4194;43.408;24.626;2023-04-03T09:33:49;1.73;;;1.63;;
8312;SDS011;4194;43.408;24.626;2023-04-03T09:36:36;2.33;;;1.80;;
8312;SDS011;4194;43.408;24.626;2023-04-03T09:39:16;2.13;;;1.75;;
8312;SDS011;4194;43.408;24.626;2023-04-03T09:41:58;2.23;;;1.50;;
8312;SDS011;4194;43.408;24.626;2023-04-03T09:44:38;1.67;;;1.53;;
8312;SDS011;4194;43.408;24.626;2023-04-03T09:52:41;3.00;;;1.73;;
8312;SDS011;4194;43.408;24.626;2023-04-03T09:55:16;2.20;;;1.77;;
8312;SDS011;4194;43.408;24.626;2023-04-03T09:57:46;1.73;;;1.63;;
8312;SDS011;4194;43.408;24.626;2023-04-03T10:03:29;2.60;;;2.00;;
8312;SDS011;4194;43.408;24.626;2023-04-03T10:05:57;2.23;;;1.73;;
8312;SDS011;4194;43.408;24.626;2023-04-03T10:08:26;1.70;;;1.60;;
8312;SDS011;4194;43.408;24.626;2023-04-03T10:13:33;1.47;;;1.37;;
8312;SDS011;4194;43.408;24.626;2023-04-03T10:16:01;3.13;;;1.43;;
8312;SDS011;4194;43.408;24.626;2023-04-03T10:24:18;2.00;;;1.80;;
8312;SDS011;4194;43.408;24.626;2023-04-03T10:26:54;2.47;;;2.27;;
8312;SDS011;4194;43.408;24.626;2023-04-03T10:32:21;1.83;;;1.27;;
8312;SDS011;4194;43.408;24.626;2023-04-03T10:34:48;1.93;;;1.50;;
8312;SDS011;4194;43.408;24.626;2023-04-03T10:37:26;1.83;;;1.30;;
8312;SDS011;4194;43.408;24.626;2023-04-03T10:40:30;1.83;;;1.57;;
8312;SDS011;4194;43.408;24.626;2023-04-03T10:45:49;1.33;;;1.23;;
8312;SDS011;4194;43.408;24.626;2023-04-03T10:59:25;2.37;;;1.30;;
8312;SDS011;4194;43.408;24.626;2023-04-03T11:05:00;2.60;;;1.10;;
8312;SDS011;4194;43.408;24.626;2023-04-03T11:07:38;1.73;;;1.47;;
8312;SDS011;4194;43.408;24.626;2023-04-03T11:10:19;2.47;;;1.60;;
8312;SDS011;4194;43.408;24.626;2023-04-03T11:15:59;2.27;;;1.43;;
8312;SDS011;4194;43.408;24.626;2023-04-03T11:18:27;2.43;;;1.40;;
8312;SDS011;4194;43.408;24.626;2023-04-03T11:21:11;1.40;;;1.20;;
8312;SDS011;4194;43.408;24.626;2023-04-03T11:23:45;1.57;;;1.47;;
8312;SDS011;4194;43.408;24.626;2023-04-03T11:26:12;2.20;;;1.90;;
8312;SDS011;4194;43.408;24.626;2023-04-03T11:28:41;4.23;;;1.57;;
8312;SDS011;4194;43.408;24.626;2023-04-03T11:36:32;1.67;;;1.30;;
8312;SDS011;4194;43.408;24.626;2023-04-03T11:41:43;1.30;;;1.20;;
8312;SDS011;4194;43.408;24.626;2023-04-03T11:44:29;2.87;;;1.13;;
8312;SDS011;4194;43.408;24.626;2023-04-03T11:47:03;1.60;;;1.50;;
8312;SDS011;4194;43.408;24.626;2023-04-03T12:29:27;1.67;;;1.57;;
8312;SDS011;4194;43.408;24.626;2023-04-03T12:34:53;1.50;;;1.40;;
8312;SDS011;4194;43.408;24.626;2023-04-03T12:51:34;1.53;;;1.43;;
8312;SDS011;4194;43.408;24.626;2023-04-03T12:54:27;3.23;;;1.57;;
8312;SDS011;4194;43.408;24.626;2023-04-03T12:57:15;1.70;;;1.60;;
8312;SDS011;4194;43.408;24.626;2023-04-03T12:59:42;2.50;;;1.60;;
8312;SDS011;4194;43.408;24.626;2023-04-03T13:02:21;3.03;;;1.67;;
8312;SDS011;4194;43.408;24.626;2023-04-03T13:04:49;3.37;;;1.80;;
8312;SDS011;4194;43.408;24.626;2023-04-03T13:07:20;4.30;;;1.77;;
8312;SDS011;4194;43.408;24.626;2023-04-03T13:09:56;2.33;;;1.60;;
8312;SDS011;4194;43.408;24.626;2023-04-03T13:13:07;5.23;;;2.10;;
8312;SDS011;4194;43.408;24.626;2023-04-03T13:15:45;2.13;;;1.90;;
8312;SDS011;4194;43.408;24.626;2023-04-03T13:18:47;2.43;;;2.23;;
8312;SDS011;4194;43.408;24.626;2023-04-03T13:21:16;2.30;;;1.90;;
8312;SDS011;4194;43.408;24.626;2023-04-03T13:23:45;3.37;;;2.10;;
8312;SDS011;4194;43.408;24.626;2023-04-03T13:26:15;4.60;;;1.87;;
8312;SDS011;4194;43.408;24.626;2023-04-03T13:28:43;1.77;;;1.63;;
8312;SDS011;4194;43.408;24.626;2023-04-03T13:33:40;1.70;;;1.40;;
8312;SDS011;4194;43.408;24.626;2023-04-03T13:36:34;2.40;;;1.80;;
8312;SDS011;4194;43.408;24.626;2023-04-03T13:41:41;2.00;;;1.90;;
8312;SDS011;4194;43.408;24.626;2023-04-03T13:46:41;1.77;;;1.40;;
8312;SDS011;4194;43.408;24.626;2023-04-03T13:51:51;1.63;;;1.40;;
8312;SDS011;4194;43.408;24.626;2023-04-03T13:54:19;1.77;;;1.33;;
8312;SDS011;4194;43.408;24.626;2023-04-03T13:56:52;3.17;;;1.37;;
8312;SDS011;4194;43.408;24.626;2023-04-03T13:59:24;6.83;;;1.70;;
8312;SDS011;4194;43.408;24.626;2023-04-03T14:04:29;4.23;;;2.00;;
8312;SDS011;4194;43.408;24.626;2023-04-03T14:06:57;3.93;;;2.20;;
8312;SDS011;4194;43.408;24.626;2023-04-03T14:09:24;4.10;;;2.00;;
8312;SDS011;4194;43.408;24.626;2023-04-03T14:11:55;3.33;;;2.03;;
8312;SDS011;4194;43.408;24.626;2023-04-03T14:14:29;2.93;;;2.23;;
8312;SDS011;4194;43.408;24.626;2023-04-03T14:16:58;2.37;;;2.10;;
8312;SDS011;4194;43.408;24.626;2023-04-03T14:19:28;6.50;;;2.40;;
8312;SDS011;4194;43.408;24.626;2023-04-03T14:21:57;4.97;;;2.30;;
8312;SDS011;4194;43.408;24.626;2023-04-03T14:24:24;5.00;;;2.57;;
8312;SDS011;4194;43.408;24.626;2023-04-03T14:26:51;3.85;;;2.90;;
8312;SDS011;4194;43.408;24.626;2023-04-03T14:29:18;6.47;;;3.60;;
8312;SDS011;4194;43.408;24.626;2023-04-03T14:31:45;3.37;;;2.70;;
8312;SDS011;4194;43.408;24.626;2023-04-03T14:34:14;2.57;;;2.37;;
8312;SDS011;4194;43.408;24.626;2023-04-03T14:36:41;3.37;;;2.73;;
8312;SDS011;4194;43.408;24.626;2023-04-03T14:39:10;5.43;;;2.60;;
8312;SDS011;4194;43.408;24.626;2023-04-03T14:41:41;5.50;;;3.07;;
8312;SDS011;4194;43.408;24.626;2023-04-03T14:44:07;4.60;;;2.50;;
8312;SDS011;4194;43.408;24.626;2023-04-03T14:46:37;2.50;;;2.30;;
8312;SDS011;4194;43.408;24.626;2023-04-03T14:49:15;2.40;;;2.20;;
8312;SDS011;4194;43.408;24.626;2023-04-03T14:51:43;2.97;;;2.20;;
8312;SDS011;4194;43.408;24.626;2023-04-03T14:54:17;2.33;;;2.13;;
8312;SDS011;4194;43.408;24.626;2023-04-03T14:56:46;4.53;;;2.73;;
8312;SDS011;4194;43.408;24.626;2023-04-03T14:59:12;5.67;;;3.07;;
8312;SDS011;4194;43.408;24.626;2023-04-03T15:01:39;7.03;;;2.73;;
8312;SDS011;4194;43.408;24.626;2023-04-03T15:04:09;6.43;;;2.13;;
8312;SDS011;4194;43.408;24.626;2023-04-03T15:06:39;5.77;;;2.07;;
8312;SDS011;4194;43.408;24.626;2023-04-03T15:09:09;1.63;;;1.53;;
8312;SDS011;4194;43.408;24.626;2023-04-03T15:11:48;1.87;;;1.53;;
8312;SDS011;4194;43.408;24.626;2023-04-03T15:14:14;1.80;;;1.60;;
8312;SDS011;4194;43.408;24.626;2023-04-03T15:16:40;2.07;;;1.63;;
8312;SDS011;4194;43.408;24.626;2023-04-03T15:19:06;1.67;;;1.47;;
8312;SDS011;4194;43.408;24.626;2023-04-03T15:21:32;2.17;;;1.80;;
8312;SDS011;4194;43.408;24.626;2023-04-03T15:23:57;2.13;;;1.73;;
8312;SDS011;4194;43.408;24.626;2023-04-03T15:26:23;5.20;;;2.97;;
8312;SDS011;4194;43.408;24.626;2023-04-03T15:28:50;3.87;;;3.17;;
8312;SDS011;4194;43.408;24.626;2023-04-03T15:31:16;5.83;;;3.60;;
8312;SDS011;4194;43.408;24.626;2023-04-03T15:33:42;4.63;;;3.00;;
8312;SDS011;4194;43.408;24.626;2023-04-03T15:36:07;3.67;;;2.63;;
8312;SDS011;4194;43.408;24.626;2023-04-03T15:38:33;3.00;;;2.33;;
8312;SDS011;4194;43.408;24.626;2023-04-03T15:41:00;2.90;;;2.60;;
8312;SDS011;4194;43.408;24.626;2023-04-03T15:43:26;2.47;;;2.07;;
8312;SDS011;4194;43.408;24.626;2023-04-03T15:45:51;3.30;;;3.00;;
8312;SDS011;4194;43.408;24.626;2023-04-03T15:48:17;2.47;;;2.27;;
8312;SDS011;4194;43.408;24.626;2023-04-03T15:50:43;3.27;;;2.50;;
8312;SDS011;4194;43.408;24.626;2023-04-03T15:53:09;4.10;;;3.70;;
8312;SDS011;4194;43.408;24.626;2023-04-03T15:55:36;4.10;;;3.37;;
8312;SDS011;4194;43.408;24.626;2023-04-03T15:58:03;3.70;;;2.73;;
8312;SDS011;4194;43.408;24.626;2023-04-03T16:00:29;2.87;;;2.60;;
8312;SDS011;4194;43.408;24.626;2023-04-03T16:02:58;9.37;;;8.47;;
8312;SDS011;4194;43.408;24.626;2023-04-03T16:05:28;9.33;;;8.53;;
8312;SDS011;4194;43.408;24.626;2023-04-03T16:07:55;9.43;;;8.53;;
8312;SDS011;4194;43.408;24.626;2023-04-03T16:10:22;6.77;;;6.13;;
8312;SDS011;4194;43.408;24.626;2023-04-03T16:12:47;5.83;;;4.07;;
8312;SDS011;4194;43.408;24.626;2023-04-03T16:15:13;4.20;;;3.80;;
8312;SDS011;4194;43.408;24.626;2023-04-03T16:17:39;6.17;;;4.70;;
8312;SDS011;4194;43.408;24.626;2023-04-03T16:20:08;3.30;;;3.00;;
8312;SDS011;4194;43.408;24.626;2023-04-03T16:22:36;4.63;;;3.50;;
8312;SDS011;4194;43.408;24.626;2023-04-03T16:25:03;4.00;;;3.60;;
8312;SDS011;4194;43.408;24.626;2023-04-03T16:27:30;7.47;;;6.40;;
8312;SDS011;4194;43.408;24.626;2023-04-03T16:29:56;7.03;;;5.80;;
8312;SDS011;4194;43.408;24.626;2023-04-03T16:32:22;6.77;;;6.07;;
8312;SDS011;4194;43.408;24.626;2023-04-03T16:34:49;7.00;;;6.30;;
8312;SDS011;4194;43.408;24.626;2023-04-03T16:37:16;7.33;;;6.63;;
8312;SDS011;4194;43.408;24.626;2023-04-03T16:39:42;5.50;;;4.97;;
8312;SDS011;4194;43.408;24.626;2023-04-03T16:42:08;6.47;;;4.97;;
8312;SDS011;4194;43.408;24.626;2023-04-03T16:44:35;6.67;;;5.10;;
8312;SDS011;4194;43.408;24.626;2023-04-03T16:47:01;5.77;;;5.00;;
8312;SDS011;4194;43.408;24.626;2023-04-03T16:49:27;6.70;;;5.13;;
8312;SDS011;4194;43.408;24.626;2023-04-03T16:51:57;4.33;;;3.93;;
8312;SDS011;4194;43.408;24.626;2023-04-03T16:54:23;3.43;;;2.97;;
8312;SDS011;4194;43.408;24.626;2023-04-03T16:56:49;3.17;;;2.87;;
8312;SDS011;4194;43.408;24.626;2023-04-03T16:59:15;3.90;;;3.50;;
8312;SDS011;4194;43.408;24.626;2023-04-03T17:01:41;2.87;;;2.67;;
8312;SDS011;4194;43.408;24.626;2023-04-03T17:04:07;5.63;;;4.40;;
8312;SDS011;4194;43.408;24.626;2023-04-03T17:06:32;5.53;;;3.83;;
8312;SDS011;4194;43.408;24.626;2023-04-03T17:08:58;3.67;;;3.27;;
8312;SDS011;4194;43.408;24.626;2023-04-03T17:11:24;3.83;;;3.27;;
8312;SDS011;4194;43.408;24.626;2023-04-03T17:13:50;3.53;;;3.23;;
8312;SDS011;4194;43.408;24.626;2023-04-03T17:16:16;5.67;;;3.33;;
8312;SDS011;4194;43.408;24.626;2023-04-03T17:18:42;4.17;;;3.77;;
8312;SDS011;4194;43.408;24.626;2023-04-03T17:21:08;4.00;;;3.47;;
8312;SDS011;4194;43.408;24.626;2023-04-03T17:23:34;5.17;;;3.77;;
8312;SDS011;4194;43.408;24.626;2023-04-03T17:26:03;5.47;;;4.00;;